WetterOnline ( http://www.wetteronline.de )

Wetter aktuell Görlitz

Aktuelles Wetter: Görlitz (240m)

6-stündlich | Neueste Meldungen
Ortszeit Temperatur Wetter
Do, 21.06. 14:00 -° C leichte Gewitter
Do, 21.06. 8:00 23.1° C fast wolkenlos
Do, 21.06. 2:00 22.6° C wolkig
Mi, 20.06. 20:00 26.9° C leicht bewölkt
Mi, 20.06. 14:00 27.5° C wolkig
Mi, 20.06. 8:00 19.1° C bewölkt
Mi, 20.06. 2:00 16.5° C bewölkt
Di, 19.06. 20:00 22.4° C bewölkt
Ortszeit Temperatur Wetter
Do, 21.06. 19:30 14.9° C bewölkt, nach Regen
Do, 21.06. 19:20 14.9° C bewölkt
Do, 21.06. 19:10 14.9° C bedeckt
Do, 21.06. 19:00 15.2° C leichter Regen
Do, 21.06. 18:50 15.2° C bedeckt
Do, 21.06. 18:40 15.6° C bedeckt
Do, 21.06. 18:30 16.1° C bewölkt
Do, 21.06. 18:00 17.6° C wolkig
Do, 21.06. 17:30 18.7° C bewölkt
Do, 21.06. 17:00 19.8° C wolkig
Do, 21.06. 16:30 -° C wolkig
Ortszeit Relative Feuchte Sichtweite
Do, 21.06. 14:00 - 40 km
Do, 21.06. 8:00 58% 50 km
Do, 21.06. 2:00 56% 60 km
Mi, 20.06. 20:00 45% 60 km
Mi, 20.06. 14:00 41% 55 km
Mi, 20.06. 8:00 73% 35 km
Mi, 20.06. 2:00 81% 25 km
Di, 19.06. 20:00 55% 55 km
Ortszeit Relative Feuchte Sichtweite
Do, 21.06. 19:30 73% 60 km
Do, 21.06. 19:20 73% -
Do, 21.06. 19:10 73% -
Do, 21.06. 19:00 71% >70 km
Do, 21.06. 18:50 71% -
Do, 21.06. 18:40 69% -
Do, 21.06. 18:30 63% >70 km
Do, 21.06. 18:00 57% 55 km
Do, 21.06. 17:30 54% 40 km
Do, 21.06. 17:00 51% 28 km
Do, 21.06. 16:30 - 17 km
Ortszeit Niederschlagsmenge Niederschlagsart
Do, 21.06. 14:00 5 l/m2 in 6 Std. Schauer
Do, 21.06. 8:00 0.0 l/m2 in 12 Std. -
Do, 21.06. 2:00 0.0 l/m2 in 6 Std. -
Mi, 20.06. 20:00 0.0 l/m2 in 12 Std. -
Mi, 20.06. 14:00 0.0 l/m2 in 6 Std. -
Mi, 20.06. 8:00 0.0 l/m2 in 12 Std. -
Mi, 20.06. 2:00 0.0 l/m2 in 6 Std. -
Di, 19.06. 20:00 0.0 l/m2 in 12 Std. -
Ortszeit Niederschlagsmenge Niederschlagsart
Do, 21.06. 19:30 0.0 l/m2 in 1 Std. -
Do, 21.06. 19:20 keine Meldung -
Do, 21.06. 19:10 keine Meldung -
Do, 21.06. 19:00 0.1 l/m2 in 1 Std. -
Do, 21.06. 18:50 keine Meldung -
Do, 21.06. 18:40 keine Meldung -
Do, 21.06. 18:30 0.0 l/m2 in 1 Std. -
Do, 21.06. 18:00 0.0 l/m2 in 1 Std. -
Do, 21.06. 17:30 0.0 l/m2 in 1 Std. -
Do, 21.06. 17:00 0.0 l/m2 in 1 Std. Gewitter
Do, 21.06. 16:30 0.0 l/m2 in 1 Std. -
Ortszeit Stärke Spitze Richtung
km/h Bft. km/h Grad Sektor
Do, 21.06. 14:00 15 3 44 200° S
Do, 21.06. 8:00 15 3 30 210° SW
Do, 21.06. 2:00 19 3 26 180° S
Mi, 20.06. 20:00 15 3 28 180° S
Mi, 20.06. 14:00 9 2 26 200° S
Mi, 20.06. 8:00 7 2 13 90° O
Mi, 20.06. 2:00 7 2 15 230° SW
Di, 19.06. 20:00 7 2 36 300° NW
Ortszeit Stärke Spitze Richtung
km/h Bft. km/h Grad Sektor
Do, 21.06. 19:30 17 3 31 310° NW
Do, 21.06. 19:20 17 3 - 310° NW
Do, 21.06. 19:10 13 3 - 300° NW
Do, 21.06. 19:00 24 4 43 310° NW
Do, 21.06. 18:50 24 4 - 310° NW
Do, 21.06. 18:40 18 3 - 300° NW
Do, 21.06. 18:30 24 4 43 300° NW
Do, 21.06. 18:00 20 4 63 310° NW
Do, 21.06. 17:30 22 4 58 310° NW
Do, 21.06. 17:00 30 5 59 310° NW
Do, 21.06. 16:30 30 5 54 310° NW
Ortszeit Untergrenze Bedeckung Gattung
total tief tief mittel hoch
Do, 21.06. 14:00 9000 m 7/8 5/8 Cb - Ci
Do, 21.06. 8:00 1800 m 1/8 1/8 Sc - -
Do, 21.06. 2:00 2100 m 5/8 5/8 Sc - -
Mi, 20.06. 20:00 1800 m 3/8 3/8 Sc - -
Mi, 20.06. 14:00 1500 m 6/8 6/8 Cu - -
Mi, 20.06. 8:00 1800 m 7/8 7/8 Sc - -
Mi, 20.06. 2:00 2100 m 7/8 6/8 Sc - -
Di, 19.06. 20:00 1800 m 7/8 7/8 Sc - -
Ortszeit Bedeckungsgrad in Achtel und Wolkenuntergrenze
Do, 21.06. 19:30 2(720m) 7(2100m)
Do, 21.06. 19:20 7(720m) 7(1020m) 7(2400m)
Do, 21.06. 19:10 4(720m) 8(2100m) 8(2400m)
Do, 21.06. 19:00 2(810m) 7(1800m) 8(2400m)
Do, 21.06. 18:50 3(810m) 4(1020m) 8(2100m)
Do, 21.06. 18:40 1(840m) 3(1020m) 8(1800m)
Do, 21.06. 18:30 2(990m) 7(1500m)
Do, 21.06. 18:00 1(1080m) 4(1500m)
Do, 21.06. 17:30 1(1230m) 7(1380m)
Do, 21.06. 17:00 5(1260m)
Do, 21.06. 16:30 2(1230m) 6(9000m)
Ortszeit Luftdruck NN (hPa) Tendenz (hPa in 3 Std.)
Do, 21.06. 14:00 1008 - 2,2
Do, 21.06. 8:00 1013 - 0,8
Do, 21.06. 2:00 1015 - 1,5
Mi, 20.06. 20:00 1017 - 1,7
Mi, 20.06. 14:00 1020 - 1,9
Mi, 20.06. 8:00 1024 + 0,4
Mi, 20.06. 2:00 1024 + 0,6
Di, 19.06. 20:00 1022 + 0,4
Ortszeit Luftdruck NN (hPa) Tendenz (hPa in 3 Std.)
Do, 21.06. 19:30 1015 + 3,8
Do, 21.06. 19:20 1015 keine Meldung
Do, 21.06. 19:10 1015 keine Meldung
Do, 21.06. 19:00 1015 + 4,7
Do, 21.06. 18:50 1015 keine Meldung
Do, 21.06. 18:40 1014 keine Meldung
Do, 21.06. 18:30 1014 + 5,8
Do, 21.06. 18:00 1013 + 5,8
Do, 21.06. 17:30 1013 + 5,4
Do, 21.06. 17:00 1012 + 3,8
Do, 21.06. 16:30 1010 + 2,5
Ortszeit Schneehöhe (cm)
Do, 21.06. 14:00 0
Do, 21.06. 8:00 0
Do, 21.06. 2:00 0
Mi, 20.06. 20:00 0
Mi, 20.06. 14:00 0
Mi, 20.06. 8:00 0
Mi, 20.06. 2:00 0
Di, 19.06. 20:00 0
Ortszeit Schneehöhe (cm)
Do, 21.06. 19:30 -
Do, 21.06. 19:20 -
Do, 21.06. 19:10 -
Do, 21.06. 19:00 -
Do, 21.06. 18:50 -
Do, 21.06. 18:40 -
Do, 21.06. 18:30 -
Do, 21.06. 18:00 -
Do, 21.06. 17:30 -
Do, 21.06. 17:00 -
Do, 21.06. 16:30 -
Link zu dieser Seite / Seite empfehlen

Das Wetter in ...